createdAt,value
2023-01-19T00:01:35.493Z,2
2023-01-19T00:03:19.230Z,2
2023-01-19T00:05:02.794Z,2
2023-01-19T00:06:46.549Z,2
2023-01-19T00:08:30.211Z,1
2023-01-19T00:10:14.057Z,2
2023-01-19T00:11:57.693Z,2
2023-01-19T00:13:41.396Z,2
2023-01-19T00:15:25.000Z,2
2023-01-19T00:17:08.776Z,2
2023-01-19T00:18:52.551Z,2
2023-01-19T00:20:35.991Z,2
2023-01-19T00:22:19.847Z,2
2023-01-19T00:24:03.548Z,2
2023-01-19T00:25:47.346Z,3
2023-01-19T00:27:31.071Z,2
2023-01-19T00:29:14.742Z,3
2023-01-19T00:30:58.378Z,3
2023-01-19T00:32:42.123Z,3
2023-01-19T00:34:25.778Z,2
2023-01-19T00:36:09.501Z,2
2023-01-19T00:37:53.231Z,2
2023-01-19T00:39:36.941Z,2
2023-01-19T00:41:20.615Z,11
2023-01-19T00:43:04.267Z,11
2023-01-19T00:44:48.052Z,3
2023-01-19T00:46:31.716Z,2
2023-01-19T00:48:15.379Z,3
2023-01-19T00:49:59.146Z,2
2023-01-19T00:51:42.766Z,3
2023-01-19T00:53:26.530Z,2
2023-01-19T00:55:10.268Z,2
2023-01-19T00:56:53.757Z,2
2023-01-19T00:58:37.638Z,3
2023-01-19T01:00:21.351Z,2
2023-01-19T01:02:05.004Z,2
2023-01-19T01:03:48.560Z,3
2023-01-19T01:05:32.435Z,2
2023-01-19T01:07:16.136Z,2
2023-01-19T01:08:59.791Z,2
2023-01-19T01:10:43.544Z,3
2023-01-19T01:12:27.275Z,2
2023-01-19T01:14:10.848Z,2
2023-01-19T01:17:38.376Z,2
2023-01-19T01:19:22.052Z,3
2023-01-19T01:21:05.718Z,3
2023-01-19T01:22:49.365Z,2
2023-01-19T01:24:33.217Z,2
2023-01-19T01:26:16.872Z,2
2023-01-19T01:28:00.626Z,2
2023-01-19T01:29:44.161Z,2
2023-01-19T01:31:28.143Z,2
2023-01-19T01:33:11.704Z,2
2023-01-19T01:34:55.300Z,2
2023-01-19T01:36:39.035Z,2
2023-01-19T01:40:06.442Z,1
2023-01-19T01:41:50.165Z,2
2023-01-19T01:43:33.881Z,3
2023-01-19T01:45:17.537Z,2
2023-01-19T01:47:01.132Z,2
2023-01-19T01:48:44.835Z,2
2023-01-19T01:50:28.751Z,2
2023-01-19T01:52:12.300Z,2
2023-01-19T01:53:56.162Z,2
2023-01-19T01:55:39.834Z,3
2023-01-19T01:57:23.462Z,2
2023-01-19T01:59:07.223Z,2
2023-01-19T02:00:50.965Z,2
2023-01-19T02:02:34.638Z,2
2023-01-19T02:04:18.350Z,2
2023-01-19T02:06:02.023Z,2
2023-01-19T02:07:45.741Z,3
2023-01-19T02:09:29.259Z,2
2023-01-19T02:11:13.150Z,2
2023-01-19T02:12:56.877Z,2
2023-01-19T02:14:40.570Z,2
2023-01-19T02:16:24.190Z,2
2023-01-19T02:18:07.777Z,2
2023-01-19T02:19:51.666Z,2
2023-01-19T02:21:35.417Z,2
2023-01-19T02:23:19.044Z,2
2023-01-19T02:25:02.579Z,2
2023-01-19T02:26:46.298Z,2
2023-01-19T02:28:30.000Z,2
2023-01-19T02:30:13.866Z,2
2023-01-19T02:31:57.572Z,2
2023-01-19T02:33:41.276Z,2
2023-01-19T02:35:24.874Z,2
2023-01-19T02:37:08.744Z,2
2023-01-19T02:38:52.430Z,2
2023-01-19T02:40:36.116Z,2
2023-01-19T02:42:19.828Z,2
2023-01-19T02:44:03.479Z,2
2023-01-19T02:45:47.239Z,2
2023-01-19T02:47:31.073Z,2
2023-01-19T02:49:14.569Z,2
2023-01-19T02:50:58.359Z,2
2023-01-19T02:52:41.917Z,2
2023-01-19T02:54:25.688Z,3
2023-01-19T02:56:09.260Z,2
2023-01-19T02:57:53.156Z,2
2023-01-19T02:59:36.819Z,3
2023-01-19T03:01:20.587Z,2
2023-01-19T03:03:04.244Z,2
2023-01-19T03:04:47.888Z,2
2023-01-19T03:06:31.609Z,2
2023-01-19T03:08:15.340Z,2
2023-01-19T03:09:59.020Z,2
2023-01-19T03:11:42.742Z,2
2023-01-19T03:13:26.525Z,1
2023-01-19T03:15:10.114Z,2
2023-01-19T03:16:53.810Z,2
2023-01-19T03:18:37.381Z,2
2023-01-19T03:20:21.211Z,2
2023-01-19T03:22:04.962Z,2
2023-01-19T03:23:48.681Z,2
2023-01-19T03:25:32.321Z,2
2023-01-19T03:27:16.073Z,2
2023-01-19T03:28:59.856Z,2
2023-01-19T03:30:43.427Z,2
2023-01-19T03:32:27.053Z,2
2023-01-19T03:34:10.827Z,3
2023-01-19T03:35:54.566Z,2
2023-01-19T03:37:38.250Z,2
2023-01-19T03:39:21.910Z,2
2023-01-19T03:41:05.727Z,2
2023-01-19T03:42:49.418Z,2
2023-01-19T03:44:33.085Z,2
2023-01-19T03:46:16.798Z,2
2023-01-19T03:48:00.321Z,3
2023-01-19T03:49:44.182Z,2
2023-01-19T03:51:27.821Z,2
2023-01-19T03:53:11.555Z,2
2023-01-19T03:54:55.254Z,1
2023-01-19T03:56:39.046Z,2
2023-01-19T03:58:22.698Z,2
2023-01-19T04:00:06.245Z,2
2023-01-19T04:01:50.115Z,1
2023-01-19T04:03:33.657Z,3
2023-01-19T04:05:17.533Z,2
2023-01-19T04:07:01.256Z,2
2023-01-19T04:08:44.941Z,2
2023-01-19T04:10:28.658Z,3
2023-01-19T04:12:12.384Z,2
2023-01-19T04:13:56.019Z,1
2023-01-19T04:15:39.705Z,2
2023-01-19T04:17:23.330Z,1
2023-01-19T04:19:07.111Z,3
2023-01-19T04:20:50.801Z,2
2023-01-19T04:22:34.546Z,2
2023-01-19T04:24:18.144Z,2
2023-01-19T04:26:01.956Z,2
2023-01-19T04:27:45.654Z,1
2023-01-19T04:29:29.362Z,2
2023-01-19T04:31:13.053Z,2
2023-01-19T04:32:56.723Z,1
2023-01-19T04:34:40.481Z,2
2023-01-19T04:36:24.207Z,3
2023-01-19T04:38:07.705Z,2
2023-01-19T04:39:51.594Z,2
2023-01-19T04:41:35.270Z,2
2023-01-19T04:43:19.040Z,3
2023-01-19T04:45:02.689Z,2
2023-01-19T04:46:46.349Z,2
2023-01-19T04:48:30.061Z,2
2023-01-19T04:50:13.750Z,2
2023-01-19T04:51:57.502Z,2
2023-01-19T04:53:41.243Z,3
2023-01-19T04:55:24.837Z,2
2023-01-19T04:57:08.642Z,2
2023-01-19T04:58:52.306Z,2
2023-01-19T05:00:36.088Z,2
2023-01-19T05:02:19.695Z,2
2023-01-19T05:04:03.389Z,2
2023-01-19T05:05:47.136Z,3
2023-01-19T05:07:30.800Z,2
2023-01-19T05:09:14.574Z,2
2023-01-19T05:10:58.238Z,2
2023-01-19T05:12:41.869Z,3
2023-01-19T05:14:25.619Z,2
2023-01-19T05:16:09.354Z,2
2023-01-19T05:17:53.073Z,2
2023-01-19T05:19:36.798Z,2
2023-01-19T05:21:20.429Z,2
2023-01-19T05:23:04.103Z,2
2023-01-19T05:24:47.823Z,2
2023-01-19T05:26:31.489Z,1
2023-01-19T05:28:15.180Z,3
2023-01-19T05:29:58.965Z,2
2023-01-19T05:31:42.694Z,2
2023-01-19T05:33:26.270Z,2
2023-01-19T05:35:09.893Z,2
2023-01-19T05:36:53.579Z,3
2023-01-19T05:38:37.462Z,2
2023-01-19T05:40:21.117Z,2
2023-01-19T05:42:04.803Z,2
2023-01-19T05:43:48.398Z,3
2023-01-19T05:45:32.263Z,3
2023-01-19T05:47:15.804Z,2
2023-01-19T05:48:59.663Z,2
2023-01-19T05:50:43.263Z,2
2023-01-19T05:52:27.074Z,2
2023-01-19T05:54:10.816Z,2
2023-01-19T05:55:54.486Z,2
2023-01-19T05:57:38.190Z,3
2023-01-19T05:59:21.839Z,2
2023-01-19T06:01:05.472Z,3
2023-01-19T06:02:49.245Z,2
2023-01-19T06:04:32.924Z,2
2023-01-19T06:06:16.684Z,2
2023-01-19T06:08:00.453Z,2
2023-01-19T06:09:44.057Z,3
2023-01-19T06:11:27.805Z,2
2023-01-19T06:13:11.560Z,2
2023-01-19T06:14:55.236Z,2
2023-01-19T06:16:38.994Z,2
2023-01-19T06:18:22.590Z,2
2023-01-19T06:20:06.342Z,3
2023-01-19T06:21:49.851Z,3
2023-01-19T06:23:33.708Z,3
2023-01-19T06:25:17.468Z,2
2023-01-19T06:27:01.136Z,3
2023-01-19T06:28:44.687Z,3
2023-01-19T06:30:28.526Z,3
2023-01-19T06:32:12.177Z,3
2023-01-19T06:33:55.964Z,4
2023-01-19T06:35:39.677Z,3
2023-01-19T06:37:23.372Z,3
2023-01-19T06:39:07.070Z,4
2023-01-19T06:40:50.726Z,4
2023-01-19T06:42:34.386Z,4
2023-01-19T06:44:18.184Z,4
2023-01-19T06:46:01.841Z,4
2023-01-19T06:47:45.553Z,5
2023-01-19T06:49:29.092Z,6
2023-01-19T06:51:12.924Z,16
2023-01-19T06:52:56.651Z,17
2023-01-19T06:54:40.392Z,18
2023-01-19T06:56:24.060Z,20
2023-01-19T06:58:07.744Z,23
2023-01-19T06:59:51.506Z,26
2023-01-19T07:01:35.113Z,29
2023-01-19T07:03:18.937Z,32
2023-01-19T07:06:46.449Z,40
2023-01-19T07:08:30.038Z,44
2023-01-19T07:10:13.682Z,49
2023-01-19T07:11:57.359Z,55
2023-01-19T07:13:41.075Z,60
2023-01-19T07:15:24.835Z,67
2023-01-19T07:17:08.512Z,74
2023-01-19T07:18:52.250Z,80
2023-01-19T07:20:35.903Z,92
2023-01-19T07:22:19.630Z,101
2023-01-19T07:24:03.287Z,111
2023-01-19T07:25:46.976Z,120
2023-01-19T07:27:30.610Z,132
2023-01-19T07:29:14.400Z,139
2023-01-19T07:30:58.216Z,152
2023-01-19T07:32:41.828Z,166
2023-01-19T07:34:25.582Z,179
2023-01-19T07:36:09.294Z,190
2023-01-19T07:37:52.844Z,203
2023-01-19T07:39:36.764Z,215
2023-01-19T07:41:20.207Z,231
2023-01-19T07:43:04.098Z,266
2023-01-19T07:44:47.778Z,269
2023-01-19T07:46:31.447Z,286
2023-01-19T07:48:15.130Z,303
2023-01-19T07:49:58.906Z,325
2023-01-19T07:51:42.632Z,666
2023-01-19T07:53:26.291Z,735
2023-01-19T07:55:09.935Z,738
2023-01-19T07:56:53.599Z,737
2023-01-19T07:58:37.435Z,737
2023-01-19T08:00:21.086Z,737
2023-01-19T08:02:04.625Z,737
2023-01-19T08:03:48.468Z,738
2023-01-19T08:05:32.229Z,737
2023-01-19T08:07:15.805Z,736
2023-01-19T08:08:59.581Z,738
2023-01-19T08:10:43.123Z,484
2023-01-19T08:12:26.882Z,737
2023-01-19T08:14:10.524Z,736
2023-01-19T08:15:54.229Z,738
2023-01-19T08:17:37.922Z,738
2023-01-19T08:19:21.746Z,736
2023-01-19T08:21:05.342Z,637
2023-01-19T08:22:49.065Z,737
2023-01-19T08:24:32.739Z,549
2023-01-19T08:26:16.454Z,573
2023-01-19T08:28:00.152Z,737
2023-01-19T08:29:43.850Z,736
2023-01-19T08:31:27.542Z,738
2023-01-19T08:33:11.363Z,738
2023-01-19T08:34:54.957Z,632
2023-01-19T08:36:38.712Z,736
2023-01-19T08:38:22.376Z,737
2023-01-19T08:40:06.054Z,738
2023-01-19T08:41:49.762Z,737
2023-01-19T08:43:33.518Z,728
2023-01-19T08:45:17.164Z,737
2023-01-19T08:47:01.000Z,737
2023-01-19T08:48:44.569Z,738
2023-01-19T08:50:28.265Z,736
2023-01-19T08:52:11.979Z,737
2023-01-19T08:53:55.668Z,738
2023-01-19T08:55:39.380Z,738
2023-01-19T08:57:23.085Z,736
2023-01-19T08:59:06.834Z,737
2023-01-19T09:00:50.504Z,738
2023-01-19T09:02:34.324Z,737
2023-01-19T09:04:18.018Z,737
2023-01-19T09:06:01.596Z,737
2023-01-19T09:07:45.432Z,737
2023-01-19T09:09:29.155Z,738
2023-01-19T09:11:12.877Z,738
2023-01-19T09:12:56.650Z,737
2023-01-19T09:14:40.149Z,737
2023-01-19T09:16:23.821Z,738
2023-01-19T09:18:07.546Z,737
2023-01-19T09:19:51.271Z,736
2023-01-19T09:21:34.927Z,737
2023-01-19T09:23:18.631Z,738
2023-01-19T09:25:02.336Z,738
2023-01-19T09:26:46.026Z,738
2023-01-19T09:28:29.750Z,737
2023-01-19T09:30:13.430Z,736
2023-01-19T09:31:57.140Z,739
2023-01-19T09:33:40.847Z,729
2023-01-19T09:35:24.642Z,738
2023-01-19T09:37:08.252Z,737
2023-01-19T09:38:51.987Z,738
2023-01-19T09:40:35.654Z,738
2023-01-19T09:42:19.355Z,737
2023-01-19T09:44:03.100Z,737
2023-01-19T09:45:46.758Z,738
2023-01-19T09:47:30.473Z,737
2023-01-19T09:49:14.161Z,738
2023-01-19T09:50:57.869Z,737
2023-01-19T09:52:41.566Z,737
2023-01-19T09:54:25.273Z,738
2023-01-19T09:56:08.982Z,737
2023-01-19T09:57:52.666Z,737
2023-01-19T09:59:36.376Z,737
2023-01-19T10:01:20.084Z,738
2023-01-19T10:03:03.873Z,738
2023-01-19T10:04:47.496Z,737
2023-01-19T10:06:31.189Z,737
2023-01-19T10:08:14.888Z,737
2023-01-19T10:09:58.598Z,737
2023-01-19T10:11:42.290Z,738
2023-01-19T10:13:25.995Z,737
2023-01-19T10:15:09.697Z,737
2023-01-19T10:16:53.396Z,738
2023-01-19T10:18:37.114Z,738
2023-01-19T10:20:20.806Z,736
2023-01-19T10:22:04.512Z,737
2023-01-19T10:23:48.214Z,737
2023-01-19T10:25:31.912Z,738
2023-01-19T10:27:15.616Z,738
2023-01-19T10:28:59.324Z,737
2023-01-19T10:30:43.052Z,737
2023-01-19T10:32:26.751Z,738
2023-01-19T10:34:10.428Z,738
2023-01-19T10:35:54.125Z,737
2023-01-19T10:37:37.850Z,736
2023-01-19T10:39:21.558Z,738
2023-01-19T10:41:05.246Z,738
2023-01-19T10:42:49.013Z,737
2023-01-19T10:44:32.647Z,737
2023-01-19T10:46:16.343Z,738
2023-01-19T10:48:00.076Z,738
2023-01-19T10:49:43.804Z,739
2023-01-19T10:51:27.555Z,736
2023-01-19T10:53:11.260Z,738
2023-01-19T10:54:54.850Z,737
2023-01-19T10:56:38.566Z,737
2023-01-19T10:58:22.250Z,737
2023-01-19T11:00:05.992Z,737
2023-01-19T11:01:49.659Z,738
2023-01-19T11:03:33.355Z,737
2023-01-19T11:05:17.112Z,731
2023-01-19T11:07:00.770Z,737
2023-01-19T11:08:44.478Z,738
2023-01-19T11:10:28.172Z,738
2023-01-19T11:12:11.959Z,737
2023-01-19T11:13:55.578Z,736
2023-01-19T11:15:39.273Z,738
2023-01-19T11:17:23.000Z,737
2023-01-19T11:19:06.704Z,728
2023-01-19T11:20:50.388Z,736
2023-01-19T11:22:34.246Z,737
2023-01-19T11:24:17.808Z,738
2023-01-19T11:26:01.536Z,737
2023-01-19T11:27:45.235Z,737
2023-01-19T11:29:28.898Z,738
2023-01-19T11:31:12.599Z,738
2023-01-19T11:32:56.330Z,730
2023-01-19T11:34:40.013Z,737
2023-01-19T11:36:23.734Z,736
2023-01-19T11:38:07.420Z,738
2023-01-19T11:39:51.119Z,737
2023-01-19T11:41:35.024Z,737
2023-01-19T11:43:18.520Z,737
2023-01-19T11:45:02.219Z,738
2023-01-19T11:46:45.934Z,728
2023-01-19T11:48:29.625Z,737
2023-01-19T11:50:13.471Z,737
2023-01-19T11:51:57.033Z,737
2023-01-19T11:53:40.734Z,738
2023-01-19T11:55:24.438Z,738
2023-01-19T11:57:08.145Z,737
2023-01-19T11:58:51.854Z,737
2023-01-19T12:00:35.590Z,737
2023-01-19T12:02:19.255Z,737
2023-01-19T12:04:02.957Z,737
2023-01-19T12:05:46.650Z,737
2023-01-19T12:07:30.362Z,737
2023-01-19T12:09:14.067Z,738
2023-01-19T12:10:57.794Z,730
2023-01-19T12:12:41.474Z,692
2023-01-19T12:14:25.175Z,664
2023-01-19T12:16:08.868Z,639
2023-01-19T12:17:52.750Z,621
2023-01-19T12:19:36.281Z,607
2023-01-19T12:21:19.992Z,593
2023-01-19T12:23:03.683Z,580
2023-01-19T12:24:47.440Z,564
2023-01-19T12:26:31.162Z,548
2023-01-19T12:28:14.798Z,538
2023-01-19T12:29:58.485Z,541
2023-01-19T12:31:42.214Z,547
2023-01-19T12:33:25.913Z,553
2023-01-19T12:35:09.604Z,557
2023-01-19T12:36:53.304Z,560
2023-01-19T12:38:37.001Z,556
2023-01-19T12:40:20.706Z,546
2023-01-19T12:42:04.413Z,535
2023-01-19T12:43:48.122Z,527
2023-01-19T12:45:31.816Z,516
2023-01-19T12:47:15.523Z,506
2023-01-19T12:48:59.218Z,495
2023-01-19T12:50:42.922Z,478
2023-01-19T12:52:26.626Z,467
2023-01-19T12:54:10.467Z,453
2023-01-19T12:55:54.042Z,440
2023-01-19T12:57:37.800Z,420
2023-01-19T12:59:21.444Z,396
2023-01-19T13:01:05.138Z,371
2023-01-19T13:02:48.840Z,349
2023-01-19T13:04:32.546Z,341
2023-01-19T13:06:16.246Z,339
2023-01-19T13:07:59.950Z,335
2023-01-19T13:09:43.660Z,323
2023-01-19T13:11:27.356Z,315
2023-01-19T13:13:11.052Z,299
2023-01-19T13:14:54.775Z,289
2023-01-19T13:16:38.451Z,283
2023-01-19T13:18:22.166Z,288
2023-01-19T13:20:05.881Z,294
2023-01-19T13:21:49.570Z,295
2023-01-19T13:23:33.290Z,295
2023-01-19T13:25:16.973Z,292
2023-01-19T13:27:00.702Z,280
2023-01-19T13:28:44.392Z,264
2023-01-19T13:30:28.083Z,247
2023-01-19T13:32:11.896Z,231
2023-01-19T13:33:55.485Z,216
2023-01-19T13:35:39.214Z,203
2023-01-19T13:37:22.889Z,194
2023-01-19T13:39:06.605Z,188
2023-01-19T13:40:50.323Z,185
2023-01-19T13:42:34.000Z,181
2023-01-19T13:44:17.789Z,178
2023-01-19T13:46:01.406Z,173
2023-01-19T13:47:45.139Z,170
2023-01-19T13:49:28.814Z,169
2023-01-19T13:51:12.517Z,163
2023-01-19T13:52:56.215Z,156
2023-01-19T13:54:39.913Z,151
2023-01-19T13:56:23.618Z,143
2023-01-19T13:58:07.318Z,136
2023-01-19T13:59:51.025Z,129
2023-01-19T14:01:34.756Z,126
2023-01-19T14:03:18.442Z,125
2023-01-19T14:05:02.136Z,126
2023-01-19T14:06:45.826Z,125
2023-01-19T14:08:29.543Z,121
2023-01-19T14:10:13.256Z,118
2023-01-19T14:11:56.937Z,118
2023-01-19T14:13:40.697Z,116
2023-01-19T14:15:24.345Z,114
2023-01-19T14:17:08.048Z,111
2023-01-19T14:18:51.783Z,109
2023-01-19T14:20:35.451Z,108
2023-01-19T14:22:19.165Z,105
2023-01-19T14:24:02.906Z,100
2023-01-19T14:25:46.558Z,98
2023-01-19T14:27:30.301Z,96
2023-01-19T14:29:13.972Z,96
2023-01-19T14:30:57.668Z,97
2023-01-19T14:32:41.385Z,98
2023-01-19T14:34:25.068Z,97
2023-01-19T14:36:08.779Z,94
2023-01-19T14:37:52.483Z,93
2023-01-19T14:39:36.176Z,92
2023-01-19T14:41:19.887Z,91
2023-01-19T14:43:03.589Z,91
2023-01-19T14:44:47.289Z,90
2023-01-19T14:46:30.992Z,89
2023-01-19T14:48:14.700Z,88
2023-01-19T14:49:58.401Z,82
2023-01-19T14:51:42.110Z,80
2023-01-19T14:53:25.837Z,81
2023-01-19T14:55:09.508Z,84
2023-01-19T14:56:53.207Z,87
2023-01-19T14:58:36.933Z,87
2023-01-19T15:00:20.671Z,86
2023-01-19T15:02:04.324Z,83
2023-01-19T15:03:48.031Z,81
2023-01-19T15:05:31.738Z,79
2023-01-19T15:07:15.437Z,77
2023-01-19T15:08:59.137Z,93
2023-01-19T15:10:42.856Z,89
2023-01-19T15:12:26.541Z,85
2023-01-19T15:14:10.255Z,83
2023-01-19T15:15:53.957Z,81
2023-01-19T15:17:37.646Z,78
2023-01-19T15:19:21.357Z,75
2023-01-19T15:21:05.172Z,74
2023-01-19T15:22:48.761Z,73
2023-01-19T15:24:32.478Z,73
2023-01-19T15:26:16.170Z,74
2023-01-19T15:27:59.871Z,72
2023-01-19T15:29:43.574Z,70
2023-01-19T15:31:27.275Z,70
2023-01-19T15:33:11.023Z,69
2023-01-19T15:34:54.687Z,66
2023-01-19T15:36:38.376Z,63
2023-01-19T15:38:22.137Z,58
2023-01-19T15:40:05.790Z,56
2023-01-19T15:41:49.502Z,52
2023-01-19T15:43:33.192Z,50
2023-01-19T15:45:16.938Z,47
2023-01-19T15:47:00.607Z,45
2023-01-19T15:48:44.293Z,43
2023-01-19T15:50:27.995Z,41
2023-01-19T15:52:11.721Z,39
2023-01-19T15:53:55.425Z,36
2023-01-19T15:55:39.107Z,36
2023-01-19T15:57:22.820Z,33
2023-01-19T15:59:06.531Z,31
2023-01-19T16:00:50.214Z,30
2023-01-19T16:02:33.921Z,29
2023-01-19T16:04:17.613Z,28
2023-01-19T16:06:01.321Z,26
2023-01-19T16:07:45.026Z,26
2023-01-19T16:09:28.727Z,25
2023-01-19T16:11:12.431Z,25
2023-01-19T16:12:56.143Z,23
2023-01-19T16:14:39.832Z,23
2023-01-19T16:16:23.539Z,21
2023-01-19T16:18:07.242Z,22
2023-01-19T16:19:50.952Z,22
2023-01-19T16:21:34.652Z,13
2023-01-19T16:23:18.390Z,12
2023-01-19T16:25:02.062Z,12
2023-01-19T16:26:45.825Z,11
2023-01-19T16:28:29.505Z,11
2023-01-19T16:30:13.162Z,12
2023-01-19T16:31:56.866Z,11
2023-01-19T16:33:40.570Z,11
2023-01-19T16:35:24.273Z,11
2023-01-19T16:37:07.976Z,12
2023-01-19T16:38:51.676Z,11
2023-01-19T16:40:35.385Z,11
2023-01-19T16:42:19.131Z,19
2023-01-19T16:44:02.785Z,20
2023-01-19T16:45:46.493Z,20
2023-01-19T16:47:30.194Z,19
2023-01-19T16:49:13.894Z,21
2023-01-19T16:50:57.599Z,20
2023-01-19T16:52:41.304Z,20
2023-01-19T16:54:25.005Z,20
2023-01-19T16:56:08.703Z,20
2023-01-19T16:57:52.410Z,20
2023-01-19T16:59:36.113Z,20
2023-01-19T17:01:19.810Z,20
2023-01-19T17:03:03.516Z,20
2023-01-19T17:04:47.229Z,20
2023-01-19T17:06:30.941Z,19
2023-01-19T17:08:14.631Z,20
2023-01-19T17:09:58.352Z,20
2023-01-19T17:11:42.038Z,20
2023-01-19T17:13:25.744Z,20
2023-01-19T17:15:09.434Z,20
2023-01-19T17:16:53.138Z,20
2023-01-19T17:18:36.837Z,20
2023-01-19T17:20:20.554Z,20
2023-01-19T17:22:04.249Z,2
2023-01-19T17:23:47.951Z,3
2023-01-19T17:25:31.659Z,3
2023-01-19T17:27:15.362Z,3
2023-01-19T17:28:59.054Z,4
2023-01-19T17:30:42.768Z,4
2023-01-19T17:32:26.466Z,3
2023-01-19T17:34:10.173Z,3
2023-01-19T17:35:53.871Z,4
2023-01-19T17:37:37.575Z,3
2023-01-19T17:39:21.295Z,3
2023-01-19T17:41:04.990Z,3
2023-01-19T17:42:48.675Z,3
2023-01-19T17:44:32.400Z,3
2023-01-19T17:46:16.088Z,3
2023-01-19T17:47:59.793Z,3
2023-01-19T17:49:43.497Z,3
2023-01-19T17:51:27.196Z,3
2023-01-19T17:53:10.903Z,3
2023-01-19T17:54:54.660Z,3
2023-01-19T17:56:38.318Z,3
2023-01-19T17:58:22.011Z,3
2023-01-19T18:00:05.711Z,3
2023-01-19T18:01:49.413Z,3
2023-01-19T18:03:33.125Z,3
2023-01-19T18:05:16.822Z,3
2023-01-19T18:07:00.521Z,3
2023-01-19T18:08:44.223Z,3
2023-01-19T18:10:27.924Z,3
2023-01-19T18:12:11.657Z,3
2023-01-19T18:13:55.337Z,4
2023-01-19T18:15:39.041Z,3
2023-01-19T18:17:22.740Z,3
2023-01-19T18:19:06.440Z,3
2023-01-19T18:20:50.144Z,4
2023-01-19T18:22:33.850Z,2
2023-01-19T18:24:17.549Z,3
2023-01-19T18:26:01.252Z,4
2023-01-19T18:27:44.959Z,3
2023-01-19T18:29:28.655Z,3
2023-01-19T18:31:12.360Z,4
2023-01-19T18:32:56.061Z,3
2023-01-19T18:36:23.477Z,2
2023-01-19T18:38:07.161Z,3
2023-01-19T18:39:50.869Z,3
2023-01-19T18:41:34.573Z,3
2023-01-19T18:43:18.288Z,3
2023-01-19T18:45:02.089Z,2
2023-01-19T18:46:45.677Z,3
2023-01-19T18:48:29.473Z,2
2023-01-19T18:50:13.096Z,3
2023-01-19T18:51:56.806Z,3
2023-01-19T18:53:40.494Z,4
2023-01-19T18:55:24.210Z,3
2023-01-19T18:57:07.894Z,3
2023-01-19T18:58:51.598Z,3
2023-01-19T19:00:35.304Z,3
2023-01-19T19:02:19.004Z,2
2023-01-19T19:04:02.709Z,3
2023-01-19T19:05:46.392Z,3
2023-01-19T19:07:30.113Z,3
2023-01-19T19:09:13.841Z,3
2023-01-19T19:10:57.560Z,3
2023-01-19T19:12:41.214Z,3
2023-01-19T19:14:24.938Z,3
2023-01-19T19:16:08.612Z,3
2023-01-19T19:17:52.326Z,3
2023-01-19T19:19:36.029Z,3
2023-01-19T19:21:19.733Z,3
2023-01-19T19:23:03.435Z,3
2023-01-19T19:24:47.131Z,3
2023-01-19T19:26:30.931Z,3
2023-01-19T19:28:14.542Z,3
2023-01-19T19:29:58.236Z,3
2023-01-19T19:31:41.946Z,2
2023-01-19T19:33:25.651Z,3
2023-01-19T19:35:09.368Z,3
2023-01-19T19:36:53.154Z,2
2023-01-19T19:40:20.464Z,3
2023-01-19T19:42:04.203Z,3
2023-01-19T19:43:47.922Z,2
2023-01-19T19:47:15.285Z,3
2023-01-19T19:48:58.963Z,3
2023-01-19T19:50:42.677Z,3
2023-01-19T19:52:26.378Z,3
2023-01-19T19:54:10.091Z,3
2023-01-19T19:55:53.776Z,2
2023-01-19T19:57:37.494Z,3
2023-01-19T19:59:21.198Z,3
2023-01-19T20:01:04.890Z,3
2023-01-19T20:02:48.589Z,3
2023-01-19T20:04:32.298Z,4
2023-01-19T20:06:15.999Z,4
2023-01-19T20:07:59.702Z,3
2023-01-19T20:09:43.408Z,3
2023-01-19T20:11:27.109Z,3
2023-01-19T20:13:10.807Z,3
2023-01-19T20:14:54.513Z,3
2023-01-19T20:18:21.918Z,3
2023-01-19T20:20:05.762Z,3
2023-01-19T20:21:49.449Z,3
2023-01-19T20:23:33.039Z,3
2023-01-19T20:25:16.788Z,3
2023-01-19T20:27:00.429Z,3
2023-01-19T20:28:44.130Z,3
2023-01-19T20:30:27.895Z,2
2023-01-19T20:32:11.551Z,3
2023-01-19T20:33:55.253Z,3
2023-01-19T20:35:38.954Z,4
2023-01-19T20:37:22.643Z,3
2023-01-19T20:39:06.348Z,3
2023-01-19T20:40:50.077Z,3
2023-01-19T20:42:33.749Z,3
2023-01-19T20:44:17.452Z,4
2023-01-19T20:46:01.156Z,3
2023-01-19T20:47:44.856Z,3
2023-01-19T20:49:28.647Z,3
2023-01-19T20:51:12.270Z,3
2023-01-19T20:52:55.965Z,3
2023-01-19T20:54:39.671Z,3
2023-01-19T20:56:23.369Z,3
2023-01-19T20:58:07.094Z,4
2023-01-19T20:59:51.139Z,4
2023-01-19T21:01:34.478Z,3
2023-01-19T21:03:18.180Z,2
2023-01-19T21:05:01.886Z,3
2023-01-19T21:06:45.583Z,3
2023-01-19T21:08:29.289Z,3
2023-01-19T21:10:12.997Z,3
2023-01-19T21:11:56.699Z,3
2023-01-19T21:13:40.395Z,3
2023-01-19T21:15:24.100Z,3
2023-01-19T21:17:07.804Z,3
2023-01-19T21:18:51.517Z,2
2023-01-19T21:20:35.204Z,3
2023-01-19T21:22:18.910Z,3
2023-01-19T21:24:02.639Z,3
2023-01-19T21:25:46.317Z,3
2023-01-19T21:27:30.024Z,3
2023-01-19T21:29:13.720Z,3
2023-01-19T21:30:57.422Z,2
2023-01-19T21:32:41.127Z,3
2023-01-19T21:34:24.826Z,3
2023-01-19T21:36:08.532Z,3
2023-01-19T21:37:52.235Z,3
2023-01-19T21:39:35.936Z,3
2023-01-19T21:41:19.658Z,3
2023-01-19T21:43:03.340Z,3
2023-01-19T21:44:47.065Z,3
2023-01-19T21:46:30.762Z,3
2023-01-19T21:48:14.446Z,3
2023-01-19T21:49:58.152Z,2
2023-01-19T21:51:41.852Z,3
2023-01-19T21:53:25.551Z,3
2023-01-19T21:55:09.256Z,3
2023-01-19T21:56:53.002Z,3
2023-01-19T21:58:36.662Z,3
2023-01-19T22:00:20.371Z,3
2023-01-19T22:02:04.065Z,3
2023-01-19T22:03:47.770Z,3
2023-01-19T22:05:31.472Z,3
2023-01-19T22:07:15.174Z,3
2023-01-19T22:08:58.880Z,3
2023-01-19T22:10:42.608Z,3
2023-01-19T22:12:26.287Z,2
2023-01-19T22:14:09.987Z,3
2023-01-19T22:15:53.688Z,4
2023-01-19T22:17:37.391Z,3
2023-01-19T22:19:21.278Z,3
2023-01-19T22:21:04.791Z,3
2023-01-19T22:22:48.597Z,2
2023-01-19T22:24:32.199Z,2
2023-01-19T22:26:15.942Z,3
2023-01-19T22:27:59.618Z,3
2023-01-19T22:29:43.300Z,2
2023-01-19T22:31:27.012Z,3
2023-01-19T22:33:10.714Z,3
2023-01-19T22:34:54.416Z,3
2023-01-19T22:36:38.110Z,11
2023-01-19T22:38:21.822Z,2
2023-01-19T22:40:05.533Z,2
2023-01-19T22:41:49.231Z,2
2023-01-19T22:43:32.939Z,2
2023-01-19T22:45:16.635Z,3
2023-01-19T22:47:00.361Z,3
2023-01-19T22:48:44.042Z,2
2023-01-19T22:50:27.740Z,3
2023-01-19T22:52:11.441Z,2
2023-01-19T22:53:55.157Z,2
2023-01-19T22:55:38.864Z,3
2023-01-19T22:57:22.594Z,3
2023-01-19T22:59:06.287Z,2
2023-01-19T23:00:49.954Z,2
2023-01-19T23:02:33.656Z,2
2023-01-19T23:04:17.401Z,2
2023-01-19T23:06:01.060Z,2
2023-01-19T23:07:44.763Z,2
2023-01-19T23:09:28.469Z,3
2023-01-19T23:11:12.171Z,2
2023-01-19T23:12:55.870Z,3
2023-01-19T23:14:39.591Z,2
2023-01-19T23:16:23.274Z,3
2023-01-19T23:18:06.986Z,3
2023-01-19T23:19:50.692Z,3
2023-01-19T23:21:34.455Z,2
2023-01-19T23:23:18.098Z,2
2023-01-19T23:25:01.787Z,3
2023-01-19T23:26:45.497Z,2
2023-01-19T23:28:29.235Z,3
2023-01-19T23:30:12.905Z,3
2023-01-19T23:31:56.610Z,2
2023-01-19T23:33:40.310Z,3
2023-01-19T23:35:24.009Z,1
2023-01-19T23:37:07.714Z,2
2023-01-19T23:38:51.424Z,3
2023-01-19T23:40:35.126Z,2
2023-01-19T23:42:18.824Z,3
2023-01-19T23:44:02.532Z,2
2023-01-19T23:45:46.227Z,3
2023-01-19T23:47:29.938Z,3
2023-01-19T23:49:13.646Z,2
2023-01-19T23:50:57.333Z,3
2023-01-19T23:52:41.027Z,3
2023-01-19T23:54:24.733Z,3
2023-01-19T23:56:08.446Z,3
2023-01-19T23:57:52.179Z,2
2023-01-19T23:59:35.847Z,3
